sensor_id;sensor_type;location;lat;lon;timestamp;pressure;altitude;pressure_sealevel;temperature;humidity
16461;BME280;8341;42.048;24.650;2022-12-29T00:00:13;98317.03;;;5.06;91.09
16461;BME280;8341;42.048;24.650;2022-12-29T00:02:40;98310.75;;;5.16;90.55
16461;BME280;8341;42.048;24.650;2022-12-29T00:05:07;98315.47;;;5.08;90.85
16461;BME280;8341;42.048;24.650;2022-12-29T00:07:34;98317.50;;;5.01;93.14
16461;BME280;8341;42.048;24.650;2022-12-29T00:10:01;98310.97;;;4.98;93.29
16461;BME280;8341;42.048;24.650;2022-12-29T00:12:28;98318.59;;;5.07;92.29
16461;BME280;8341;42.048;24.650;2022-12-29T00:15:17;98337.50;;;5.07;91.41
16461;BME280;8341;42.048;24.650;2022-12-29T00:18:01;98331.78;;;5.01;91.39
16461;BME280;8341;42.048;24.650;2022-12-29T00:20:28;98334.25;;;4.92;91.00
16461;BME280;8341;42.048;24.650;2022-12-29T00:23:12;98338.16;;;4.88;92.39
16461;BME280;8341;42.048;24.650;2022-12-29T00:26:02;98338.66;;;4.79;94.09
16461;BME280;8341;42.048;24.650;2022-12-29T00:28:47;98338.78;;;4.72;94.06
16461;BME280;8341;42.048;24.650;2022-12-29T00:31:32;98341.88;;;4.71;93.82
16461;BME280;8341;42.048;24.650;2022-12-29T00:34:16;98352.13;;;4.83;93.05
16461;BME280;8341;42.048;24.650;2022-12-29T00:37:00;98355.44;;;4.94;92.11
16461;BME280;8341;42.048;24.650;2022-12-29T00:39:27;98358.66;;;4.85;92.62
16461;BME280;8341;42.048;24.650;2022-12-29T00:42:11;98359.56;;;5.05;92.22
16461;BME280;8341;42.048;24.650;2022-12-29T00:44:56;98365.63;;;5.13;91.63
16461;BME280;8341;42.048;24.650;2022-12-29T00:47:24;98367.09;;;5.18;91.80
16461;BME280;8341;42.048;24.650;2022-12-29T00:49:51;98373.13;;;5.29;90.37
16461;BME280;8341;42.048;24.650;2022-12-29T00:52:16;98379.94;;;5.37;90.53
16461;BME280;8341;42.048;24.650;2022-12-29T00:54:43;98369.06;;;5.40;89.98
16461;BME280;8341;42.048;24.650;2022-12-29T00:57:11;98367.66;;;5.55;89.08
16461;BME280;8341;42.048;24.650;2022-12-29T00:59:39;98362.25;;;5.55;89.25
16461;BME280;8341;42.048;24.650;2022-12-29T01:02:07;98362.88;;;5.66;89.18
16461;BME280;8341;42.048;24.650;2022-12-29T01:04:36;98367.81;;;5.72;89.64
16461;BME280;8341;42.048;24.650;2022-12-29T01:07:03;98366.16;;;5.78;89.15
16461;BME280;8341;42.048;24.650;2022-12-29T01:09:31;98361.44;;;5.85;88.90
16461;BME280;8341;42.048;24.650;2022-12-29T01:12:15;98363.72;;;5.87;88.35
16461;BME280;8341;42.048;24.650;2022-12-29T01:14:42;98365.59;;;5.90;87.03
16461;BME280;8341;42.048;24.650;2022-12-29T01:17:09;98366.28;;;5.94;86.67
16461;BME280;8341;42.048;24.650;2022-12-29T01:19:37;98353.53;;;5.94;85.75
16461;BME280;8341;42.048;24.650;2022-12-29T01:22:04;98358.16;;;5.94;86.05
16461;BME280;8341;42.048;24.650;2022-12-29T01:24:30;98360.41;;;5.99;85.59
16461;BME280;8341;42.048;24.650;2022-12-29T01:26:57;98359.56;;;6.02;85.73
16461;BME280;8341;42.048;24.650;2022-12-29T01:29:24;98360.16;;;6.13;85.44
16461;BME280;8341;42.048;24.650;2022-12-29T01:31:51;98350.34;;;6.19;84.70
16461;BME280;8341;42.048;24.650;2022-12-29T01:34:18;98345.66;;;6.23;84.65
16461;BME280;8341;42.048;24.650;2022-12-29T01:36:46;98344.81;;;6.26;84.67
16461;BME280;8341;42.048;24.650;2022-12-29T01:39:13;98342.44;;;6.28;84.42
16461;BME280;8341;42.048;24.650;2022-12-29T01:41:39;98336.25;;;6.27;83.81
16461;BME280;8341;42.048;24.650;2022-12-29T01:47:10;98331.97;;;6.10;85.48
16461;BME280;8341;42.048;24.650;2022-12-29T01:49:38;98333.91;;;6.10;85.96
16461;BME280;8341;42.048;24.650;2022-12-29T01:52:07;98326.06;;;6.15;85.47
16461;BME280;8341;42.048;24.650;2022-12-29T01:54:39;98318.63;;;6.00;86.85
16461;BME280;8341;42.048;24.650;2022-12-29T01:57:12;98318.19;;;6.01;87.45
16461;BME280;8341;42.048;24.650;2022-12-29T01:59:53;98314.97;;;5.87;88.41
16461;BME280;8341;42.048;24.650;2022-12-29T02:02:22;98326.97;;;5.62;90.64
16461;BME280;8341;42.048;24.650;2022-12-29T02:04:51;98302.13;;;5.67;91.05
16461;BME280;8341;42.048;24.650;2022-12-29T02:07:23;98292.03;;;5.72;89.88
16461;BME280;8341;42.048;24.650;2022-12-29T02:09:51;98300.84;;;5.76;88.59
16461;BME280;8341;42.048;24.650;2022-12-29T02:12:20;98302.81;;;5.75;88.22
16461;BME280;8341;42.048;24.650;2022-12-29T02:14:53;98295.91;;;5.70;88.00
16461;BME280;8341;42.048;24.650;2022-12-29T02:17:28;98289.50;;;5.61;88.42
16461;BME280;8341;42.048;24.650;2022-12-29T02:23:15;98295.72;;;5.58;87.10
16461;BME280;8341;42.048;24.650;2022-12-29T02:26:13;98286.94;;;5.54;87.10
16461;BME280;8341;42.048;24.650;2022-12-29T02:29:15;98277.44;;;5.19;91.58
16461;BME280;8341;42.048;24.650;2022-12-29T02:31:53;98275.16;;;5.18;92.43
16461;BME280;8341;42.048;24.650;2022-12-29T02:34:26;98267.16;;;5.11;92.17
16461;BME280;8341;42.048;24.650;2022-12-29T02:37:03;98279.91;;;5.10;92.43
16461;BME280;8341;42.048;24.650;2022-12-29T02:39:37;98275.69;;;5.09;92.55
16461;BME280;8341;42.048;24.650;2022-12-29T02:42:11;98266.09;;;5.04;92.55
16461;BME280;8341;42.048;24.650;2022-12-29T02:44:47;98279.81;;;5.17;91.99
16461;BME280;8341;42.048;24.650;2022-12-29T02:47:22;98273.56;;;5.20;90.93
16461;BME280;8341;42.048;24.650;2022-12-29T02:49:58;98277.44;;;5.19;89.59
16461;BME280;8341;42.048;24.650;2022-12-29T02:52:30;98274.84;;;5.12;88.86
16461;BME280;8341;42.048;24.650;2022-12-29T02:54:58;98271.47;;;5.08;88.92
16461;BME280;8341;42.048;24.650;2022-12-29T02:57:33;98268.63;;;4.92;90.05
16461;BME280;8341;42.048;24.650;2022-12-29T03:00:03;98271.78;;;4.87;90.35
16461;BME280;8341;42.048;24.650;2022-12-29T03:02:44;98271.66;;;4.94;90.69
16461;BME280;8341;42.048;24.650;2022-12-29T03:05:35;98275.59;;;4.89;91.19
16461;BME280;8341;42.048;24.650;2022-12-29T03:08:14;98258.72;;;4.82;92.23
16461;BME280;8341;42.048;24.650;2022-12-29T03:10:50;98261.31;;;4.89;91.94
16461;BME280;8341;42.048;24.650;2022-12-29T03:13:24;98271.03;;;4.83;91.98
16461;BME280;8341;42.048;24.650;2022-12-29T03:16:16;98267.50;;;4.89;92.90
16461;BME280;8341;42.048;24.650;2022-12-29T03:18:54;98270.25;;;4.86;91.97
16461;BME280;8341;42.048;24.650;2022-12-29T03:21:29;98268.00;;;4.81;92.21
16461;BME280;8341;42.048;24.650;2022-12-29T03:24:12;98259.97;;;4.47;93.31
16461;BME280;8341;42.048;24.650;2022-12-29T03:26:40;98257.81;;;4.35;94.20
16461;BME280;8341;42.048;24.650;2022-12-29T03:29:08;98253.09;;;4.12;96.17
16461;BME280;8341;42.048;24.650;2022-12-29T03:31:37;98253.00;;;4.19;96.94
16461;BME280;8341;42.048;24.650;2022-12-29T03:34:07;98253.38;;;4.21;98.24
16461;BME280;8341;42.048;24.650;2022-12-29T03:36:40;98243.34;;;4.22;99.02
16461;BME280;8341;42.048;24.650;2022-12-29T03:39:10;98238.13;;;4.38;97.31
16461;BME280;8341;42.048;24.650;2022-12-29T03:41:40;98235.09;;;4.32;97.37
16461;BME280;8341;42.048;24.650;2022-12-29T03:44:10;98248.03;;;4.44;96.70
16461;BME280;8341;42.048;24.650;2022-12-29T03:46:37;98238.69;;;4.53;96.09
16461;BME280;8341;42.048;24.650;2022-12-29T03:49:04;98242.13;;;4.57;95.30
16461;BME280;8341;42.048;24.650;2022-12-29T03:51:32;98233.69;;;4.51;94.95
16461;BME280;8341;42.048;24.650;2022-12-29T03:53:59;98237.88;;;4.56;94.71
16461;BME280;8341;42.048;24.650;2022-12-29T03:56:26;98239.91;;;4.48;95.87
16461;BME280;8341;42.048;24.650;2022-12-29T03:58:52;98240.16;;;4.30;97.51
16461;BME280;8341;42.048;24.650;2022-12-29T04:01:19;98237.81;;;4.32;98.49
16461;BME280;8341;42.048;24.650;2022-12-29T04:03:46;98244.97;;;4.16;98.14
16461;BME280;8341;42.048;24.650;2022-12-29T04:06:13;98250.13;;;4.03;99.05
16461;BME280;8341;42.048;24.650;2022-12-29T04:08:41;98253.38;;;4.21;98.60
16461;BME280;8341;42.048;24.650;2022-12-29T04:11:08;98260.63;;;4.28;97.35
16461;BME280;8341;42.048;24.650;2022-12-29T04:13:34;98253.66;;;4.30;97.62
16461;BME280;8341;42.048;24.650;2022-12-29T04:16:01;98257.94;;;4.28;97.69
16461;BME280;8341;42.048;24.650;2022-12-29T04:18:28;98269.75;;;4.37;96.88
16461;BME280;8341;42.048;24.650;2022-12-29T04:20:55;98260.06;;;4.40;95.72
16461;BME280;8341;42.048;24.650;2022-12-29T04:23:28;98259.31;;;4.39;94.98
16461;BME280;8341;42.048;24.650;2022-12-29T04:25:57;98266.59;;;4.42;94.71
16461;BME280;8341;42.048;24.650;2022-12-29T04:28:24;98270.84;;;4.43;94.00
16461;BME280;8341;42.048;24.650;2022-12-29T04:30:50;98273.63;;;4.36;94.92
16461;BME280;8341;42.048;24.650;2022-12-29T04:33:17;98281.78;;;4.33;95.04
16461;BME280;8341;42.048;24.650;2022-12-29T04:35:44;98278.63;;;4.38;95.57
16461;BME280;8341;42.048;24.650;2022-12-29T04:38:11;98286.06;;;4.30;95.83
16461;BME280;8341;42.048;24.650;2022-12-29T04:40:39;98280.91;;;4.39;95.33
16461;BME280;8341;42.048;24.650;2022-12-29T04:43:07;98293.69;;;4.35;95.81
16461;BME280;8341;42.048;24.650;2022-12-29T04:45:35;98294.06;;;4.37;95.61
16461;BME280;8341;42.048;24.650;2022-12-29T04:48:02;98293.72;;;4.32;96.76
16461;BME280;8341;42.048;24.650;2022-12-29T04:50:29;98297.97;;;4.33;97.26
16461;BME280;8341;42.048;24.650;2022-12-29T04:52:56;98294.19;;;4.27;97.69
16461;BME280;8341;42.048;24.650;2022-12-29T04:55:23;98290.91;;;4.42;96.75
16461;BME280;8341;42.048;24.650;2022-12-29T04:57:49;98300.88;;;4.49;96.38
16461;BME280;8341;42.048;24.650;2022-12-29T05:00:18;98303.84;;;4.55;96.33
16461;BME280;8341;42.048;24.650;2022-12-29T05:02:45;98294.59;;;4.56;95.82
16461;BME280;8341;42.048;24.650;2022-12-29T05:05:12;98303.50;;;4.53;94.96
16461;BME280;8341;42.048;24.650;2022-12-29T05:07:39;98298.53;;;4.51;92.42
16461;BME280;8341;42.048;24.650;2022-12-29T05:10:06;98302.97;;;4.34;92.79
16461;BME280;8341;42.048;24.650;2022-12-29T05:12:35;98302.25;;;4.30;93.91
16461;BME280;8341;42.048;24.650;2022-12-29T05:15:03;98301.16;;;4.24;95.07
16461;BME280;8341;42.048;24.650;2022-12-29T05:17:31;98299.59;;;4.27;95.82
16461;BME280;8341;42.048;24.650;2022-12-29T05:19:58;98302.63;;;4.29;96.35
16461;BME280;8341;42.048;24.650;2022-12-29T05:22:25;98305.41;;;4.25;97.62
16461;BME280;8341;42.048;24.650;2022-12-29T05:24:52;98298.44;;;4.28;97.64
16461;BME280;8341;42.048;24.650;2022-12-29T05:27:18;98289.13;;;4.29;97.82
16461;BME280;8341;42.048;24.650;2022-12-29T05:29:45;98283.81;;;4.25;97.80
16461;BME280;8341;42.048;24.650;2022-12-29T05:32:12;98279.63;;;4.21;99.40
16461;BME280;8341;42.048;24.650;2022-12-29T05:34:40;98291.16;;;4.21;97.95
16461;BME280;8341;42.048;24.650;2022-12-29T05:37:07;98284.34;;;4.13;97.69
16461;BME280;8341;42.048;24.650;2022-12-29T05:39:34;98280.97;;;4.02;98.04
16461;BME280;8341;42.048;24.650;2022-12-29T05:42:00;98280.44;;;4.14;98.88
16461;BME280;8341;42.048;24.650;2022-12-29T05:44:27;98280.13;;;4.09;99.16
16461;BME280;8341;42.048;24.650;2022-12-29T05:46:54;98279.78;;;4.07;100.00
16461;BME280;8341;42.048;24.650;2022-12-29T05:49:21;98268.19;;;4.06;100.00
16461;BME280;8341;42.048;24.650;2022-12-29T05:51:49;98270.47;;;4.11;100.00
16461;BME280;8341;42.048;24.650;2022-12-29T05:54:16;98261.06;;;4.23;100.00
16461;BME280;8341;42.048;24.650;2022-12-29T05:56:42;98267.31;;;4.16;99.43
16461;BME280;8341;42.048;24.650;2022-12-29T05:59:09;98243.09;;;4.09;99.18
16461;BME280;8341;42.048;24.650;2022-12-29T06:01:36;98274.47;;;4.30;98.10
16461;BME280;8341;42.048;24.650;2022-12-29T06:04:03;98282.72;;;4.19;99.37
16461;BME280;8341;42.048;24.650;2022-12-29T06:06:30;98267.94;;;4.27;98.83
16461;BME280;8341;42.048;24.650;2022-12-29T06:08:58;98268.66;;;4.31;98.37
16461;BME280;8341;42.048;24.650;2022-12-29T06:11:25;98276.75;;;4.31;97.74
16461;BME280;8341;42.048;24.650;2022-12-29T06:13:52;98279.84;;;4.33;97.03
16461;BME280;8341;42.048;24.650;2022-12-29T06:16:19;98275.97;;;4.34;96.26
16461;BME280;8341;42.048;24.650;2022-12-29T06:18:45;98275.59;;;4.32;95.92
16461;BME280;8341;42.048;24.650;2022-12-29T06:21:12;98284.88;;;4.31;96.87
16461;BME280;8341;42.048;24.650;2022-12-29T06:23:39;98281.00;;;4.32;96.10
16461;BME280;8341;42.048;24.650;2022-12-29T06:26:07;98289.44;;;4.38;96.71
16461;BME280;8341;42.048;24.650;2022-12-29T06:28:34;98282.44;;;4.40;96.10
16461;BME280;8341;42.048;24.650;2022-12-29T06:31:01;98289.06;;;4.36;96.23
16461;BME280;8341;42.048;24.650;2022-12-29T06:33:28;98294.06;;;4.37;95.15
16461;BME280;8341;42.048;24.650;2022-12-29T06:35:55;98290.69;;;4.30;95.28
16461;BME280;8341;42.048;24.650;2022-12-29T06:38:22;98290.03;;;4.19;97.57
16461;BME280;8341;42.048;24.650;2022-12-29T06:40:49;98306.44;;;4.35;98.73
16461;BME280;8341;42.048;24.650;2022-12-29T06:43:17;98306.97;;;4.53;98.69
16461;BME280;8341;42.048;24.650;2022-12-29T06:45:43;98310.84;;;4.52;98.41
16461;BME280;8341;42.048;24.650;2022-12-29T06:48:10;98318.34;;;4.68;97.96
16461;BME280;8341;42.048;24.650;2022-12-29T06:50:37;98325.09;;;4.83;97.18
16461;BME280;8341;42.048;24.650;2022-12-29T06:53:04;98322.66;;;4.92;96.75
16461;BME280;8341;42.048;24.650;2022-12-29T06:55:31;98321.78;;;4.98;96.35
16461;BME280;8341;42.048;24.650;2022-12-29T06:57:58;98335.16;;;5.09;94.71
16461;BME280;8341;42.048;24.650;2022-12-29T07:00:27;98336.22;;;5.15;94.41
16461;BME280;8341;42.048;24.650;2022-12-29T07:02:55;98338.00;;;5.25;94.03
16461;BME280;8341;42.048;24.650;2022-12-29T07:05:23;98338.72;;;5.29;93.22
16461;BME280;8341;42.048;24.650;2022-12-29T07:07:52;98330.19;;;5.31;93.01
16461;BME280;8341;42.048;24.650;2022-12-29T07:10:18;98335.19;;;5.32;92.70
16461;BME280;8341;42.048;24.650;2022-12-29T07:12:45;98334.38;;;5.35;91.33
16461;BME280;8341;42.048;24.650;2022-12-29T07:15:12;98331.94;;;5.44;91.43
16461;BME280;8341;42.048;24.650;2022-12-29T07:17:40;98323.44;;;5.42;91.33
16461;BME280;8341;42.048;24.650;2022-12-29T07:20:08;98336.41;;;5.54;91.36
16461;BME280;8341;42.048;24.650;2022-12-29T07:22:35;98334.84;;;5.53;90.67
16461;BME280;8341;42.048;24.650;2022-12-29T07:25:02;98323.78;;;4.94;94.33
16461;BME280;8341;42.048;24.650;2022-12-29T07:27:29;98328.69;;;5.03;94.93
16461;BME280;8341;42.048;24.650;2022-12-29T07:29:56;98329.09;;;5.28;93.38
16461;BME280;8341;42.048;24.650;2022-12-29T07:32:23;98335.28;;;5.52;92.23
16461;BME280;8341;42.048;24.650;2022-12-29T07:34:51;98321.28;;;5.57;91.96
16461;BME280;8341;42.048;24.650;2022-12-29T07:37:18;98330.75;;;5.68;91.99
16461;BME280;8341;42.048;24.650;2022-12-29T07:39:45;98320.84;;;5.82;92.24
16461;BME280;8341;42.048;24.650;2022-12-29T07:42:12;98314.63;;;5.85;91.63
16461;BME280;8341;42.048;24.650;2022-12-29T07:44:39;98321.19;;;6.07;91.61
16461;BME280;8341;42.048;24.650;2022-12-29T07:47:06;98329.09;;;6.17;91.97
16461;BME280;8341;42.048;24.650;2022-12-29T07:49:32;98282.94;;;6.05;91.04
16461;BME280;8341;42.048;24.650;2022-12-29T07:52:01;98320.97;;;6.37;90.44
16461;BME280;8341;42.048;24.650;2022-12-29T07:54:27;98310.09;;;6.41;91.57
16461;BME280;8341;42.048;24.650;2022-12-29T07:56:54;98320.22;;;6.56;92.26
16461;BME280;8341;42.048;24.650;2022-12-29T07:59:22;98335.19;;;6.80;92.27
16461;BME280;8341;42.048;24.650;2022-12-29T08:01:49;98312.66;;;6.83;90.77
16461;BME280;8341;42.048;24.650;2022-12-29T08:04:16;98334.47;;;7.12;88.84
16461;BME280;8341;42.048;24.650;2022-12-29T08:06:43;98312.72;;;7.16;88.20
16461;BME280;8341;42.048;24.650;2022-12-29T08:09:12;98329.16;;;7.41;87.16
16461;BME280;8341;42.048;24.650;2022-12-29T08:11:39;98320.50;;;7.46;85.95
16461;BME280;8341;42.048;24.650;2022-12-29T08:14:06;98337.47;;;7.66;85.62
16461;BME280;8341;42.048;24.650;2022-12-29T08:16:33;98333.13;;;7.69;85.64
16461;BME280;8341;42.048;24.650;2022-12-29T08:18:59;98308.31;;;7.54;84.22
16461;BME280;8341;42.048;24.650;2022-12-29T08:21:27;98323.88;;;7.82;83.16
16461;BME280;8341;42.048;24.650;2022-12-29T08:23:53;98341.84;;;7.92;84.21
16461;BME280;8341;42.048;24.650;2022-12-29T08:26:22;98309.91;;;7.96;83.09
16461;BME280;8341;42.048;24.650;2022-12-29T08:28:48;98298.16;;;7.87;82.38
16461;BME280;8341;42.048;24.650;2022-12-29T08:31:15;98317.50;;;8.17;80.67
16461;BME280;8341;42.048;24.650;2022-12-29T08:33:42;98297.59;;;8.08;80.36
16461;BME280;8341;42.048;24.650;2022-12-29T08:36:09;98317.25;;;8.28;79.55
16461;BME280;8341;42.048;24.650;2022-12-29T08:38:36;98304.69;;;8.18;79.92
16461;BME280;8341;42.048;24.650;2022-12-29T08:41:03;98318.47;;;8.40;81.63
16461;BME280;8341;42.048;24.650;2022-12-29T08:43:31;98297.59;;;8.37;80.13
16461;BME280;8341;42.048;24.650;2022-12-29T08:45:58;98315.25;;;8.45;78.68
16461;BME280;8341;42.048;24.650;2022-12-29T08:48:25;98307.59;;;7.82;81.59
16461;BME280;8341;42.048;24.650;2022-12-29T08:50:52;98273.88;;;7.35;83.75
16461;BME280;8341;42.048;24.650;2022-12-29T08:53:19;98311.53;;;7.49;84.99
16461;BME280;8341;42.048;24.650;2022-12-29T08:55:46;98312.22;;;7.21;86.93
16461;BME280;8341;42.048;24.650;2022-12-29T08:58:13;98306.94;;;7.46;86.75
16461;BME280;8341;42.048;24.650;2022-12-29T09:00:43;98297.69;;;7.43;85.35
16461;BME280;8341;42.048;24.650;2022-12-29T09:03:10;98305.00;;;7.46;85.41
16461;BME280;8341;42.048;24.650;2022-12-29T09:05:37;98290.59;;;7.49;86.02
16461;BME280;8341;42.048;24.650;2022-12-29T09:08:04;98290.59;;;7.49;85.94
16461;BME280;8341;42.048;24.650;2022-12-29T09:10:31;98279.94;;;7.55;85.00
16461;BME280;8341;42.048;24.650;2022-12-29T09:12:58;98286.06;;;7.59;85.71
16461;BME280;8341;42.048;24.650;2022-12-29T09:15:25;98268.75;;;7.69;86.57
16461;BME280;8341;42.048;24.650;2022-12-29T09:17:53;98286.22;;;7.68;85.77
16461;BME280;8341;42.048;24.650;2022-12-29T09:20:20;98284.88;;;7.60;87.13
16461;BME280;8341;42.048;24.650;2022-12-29T09:22:47;98274.69;;;7.64;86.84
16461;BME280;8341;42.048;24.650;2022-12-29T09:25:15;98265.47;;;7.62;87.03
16461;BME280;8341;42.048;24.650;2022-12-29T09:27:42;98271.28;;;7.60;88.18
16461;BME280;8341;42.048;24.650;2022-12-29T09:30:11;98268.88;;;7.78;87.57
16461;BME280;8341;42.048;24.650;2022-12-29T09:32:40;98261.19;;;7.77;85.98
16461;BME280;8341;42.048;24.650;2022-12-29T09:35:08;98258.72;;;7.82;86.50
16461;BME280;8341;42.048;24.650;2022-12-29T09:37:35;98206.88;;;7.32;86.21
16461;BME280;8341;42.048;24.650;2022-12-29T09:40:03;98256.03;;;7.50;88.19
16461;BME280;8341;42.048;24.650;2022-12-29T09:42:33;98246.88;;;7.60;88.04
16461;BME280;8341;42.048;24.650;2022-12-29T09:45:10;98235.16;;;7.63;88.28
16461;BME280;8341;42.048;24.650;2022-12-29T09:47:38;98239.38;;;7.80;88.37
16461;BME280;8341;42.048;24.650;2022-12-29T09:50:16;98234.78;;;7.77;87.92
16461;BME280;8341;42.048;24.650;2022-12-29T09:52:48;98235.66;;;7.74;87.38
16461;BME280;8341;42.048;24.650;2022-12-29T09:55:17;98227.63;;;7.83;88.09
16461;BME280;8341;42.048;24.650;2022-12-29T09:57:47;98230.25;;;7.87;87.70
16461;BME280;8341;42.048;24.650;2022-12-29T10:00:18;98229.66;;;7.95;86.57
16461;BME280;8341;42.048;24.650;2022-12-29T10:02:48;98223.09;;;7.80;86.59
16461;BME280;8341;42.048;24.650;2022-12-29T10:05:27;98215.38;;;7.91;85.83
16461;BME280;8341;42.048;24.650;2022-12-29T10:08:09;98232.19;;;8.15;85.44
16461;BME280;8341;42.048;24.650;2022-12-29T10:10:47;98214.44;;;8.39;83.91
16461;BME280;8341;42.048;24.650;2022-12-29T10:13:26;98215.94;;;8.40;82.73
16461;BME280;8341;42.048;24.650;2022-12-29T10:16:02;98204.34;;;8.52;82.26
16461;BME280;8341;42.048;24.650;2022-12-29T10:18:52;98199.22;;;8.54;81.55
16461;BME280;8341;42.048;24.650;2022-12-29T10:21:33;98197.47;;;8.35;82.76
16461;BME280;8341;42.048;24.650;2022-12-29T10:24:07;98201.09;;;8.45;81.90
16461;BME280;8341;42.048;24.650;2022-12-29T10:26:39;98199.53;;;8.44;81.34
16461;BME280;8341;42.048;24.650;2022-12-29T10:29:11;98196.28;;;8.49;82.13
16461;BME280;8341;42.048;24.650;2022-12-29T10:31:43;98191.94;;;8.64;80.53
16461;BME280;8341;42.048;24.650;2022-12-29T10:34:17;98182.78;;;8.58;81.02
16461;BME280;8341;42.048;24.650;2022-12-29T10:36:48;98179.84;;;8.77;80.37
16461;BME280;8341;42.048;24.650;2022-12-29T10:39:20;98187.56;;;8.79;78.79
16461;BME280;8341;42.048;24.650;2022-12-29T10:41:52;98181.34;;;8.91;79.15
16461;BME280;8341;42.048;24.650;2022-12-29T10:44:22;98184.75;;;8.82;80.11
16461;BME280;8341;42.048;24.650;2022-12-29T10:46:55;98183.22;;;8.69;79.71
16461;BME280;8341;42.048;24.650;2022-12-29T10:49:25;98162.66;;;8.80;79.87
16461;BME280;8341;42.048;24.650;2022-12-29T10:51:57;98187.19;;;9.15;78.34
16461;BME280;8341;42.048;24.650;2022-12-29T10:54:27;98182.78;;;8.96;77.89
16461;BME280;8341;42.048;24.650;2022-12-29T10:57:00;98186.47;;;8.89;79.42
16461;BME280;8341;42.048;24.650;2022-12-29T10:59:30;98190.59;;;9.06;78.81
16461;BME280;8341;42.048;24.650;2022-12-29T11:02:02;98184.03;;;9.16;77.72
16461;BME280;8341;42.048;24.650;2022-12-29T11:04:51;98178.25;;;9.49;77.34
16461;BME280;8341;42.048;24.650;2022-12-29T11:07:23;98160.94;;;9.55;75.31
16461;BME280;8341;42.048;24.650;2022-12-29T11:09:51;98164.78;;;9.67;75.33
16461;BME280;8341;42.048;24.650;2022-12-29T11:12:21;98157.00;;;9.34;76.27
16461;BME280;8341;42.048;24.650;2022-12-29T11:15:02;98158.44;;;9.26;76.89
16461;BME280;8341;42.048;24.650;2022-12-29T11:17:28;98157.69;;;9.13;77.48
16461;BME280;8341;42.048;24.650;2022-12-29T11:19:55;98147.22;;;8.77;79.88
16461;BME280;8341;42.048;24.650;2022-12-29T11:22:26;98154.94;;;9.26;78.26
16461;BME280;8341;42.048;24.650;2022-12-29T11:24:54;98151.41;;;9.38;77.46
16461;BME280;8341;42.048;24.650;2022-12-29T11:27:32;98161.97;;;9.36;77.04
16461;BME280;8341;42.048;24.650;2022-12-29T11:29:59;98149.78;;;9.62;76.46
16461;BME280;8341;42.048;24.650;2022-12-29T11:32:27;98160.47;;;9.57;76.11
16461;BME280;8341;42.048;24.650;2022-12-29T11:34:56;98152.25;;;9.69;75.06
16461;BME280;8341;42.048;24.650;2022-12-29T11:37:28;98148.25;;;9.83;74.53
16461;BME280;8341;42.048;24.650;2022-12-29T11:39:57;98147.22;;;9.89;74.89
16461;BME280;8341;42.048;24.650;2022-12-29T11:42:33;98144.72;;;9.52;74.61
16461;BME280;8341;42.048;24.650;2022-12-29T11:45:05;98149.03;;;9.62;75.61
16461;BME280;8341;42.048;24.650;2022-12-29T11:47:33;98142.31;;;9.54;75.13
16461;BME280;8341;42.048;24.650;2022-12-29T11:50:01;98135.91;;;9.48;75.86
16461;BME280;8341;42.048;24.650;2022-12-29T11:52:32;98136.16;;;9.62;75.04
16461;BME280;8341;42.048;24.650;2022-12-29T11:55:02;98133.13;;;9.82;73.68
16461;BME280;8341;42.048;24.650;2022-12-29T11:57:31;98127.28;;;9.92;73.09
16461;BME280;8341;42.048;24.650;2022-12-29T12:00:00;98119.84;;;10.15;73.69
16461;BME280;8341;42.048;24.650;2022-12-29T12:02:36;98128.22;;;9.98;72.34
16461;BME280;8341;42.048;24.650;2022-12-29T12:05:10;98135.47;;;10.14;72.83
16461;BME280;8341;42.048;24.650;2022-12-29T12:07:42;98128.34;;;10.17;72.16
16461;BME280;8341;42.048;24.650;2022-12-29T12:10:21;98128.72;;;10.06;73.05
16461;BME280;8341;42.048;24.650;2022-12-29T12:12:56;98111.31;;;10.34;72.67
16461;BME280;8341;42.048;24.650;2022-12-29T12:15:28;98116.66;;;10.47;71.34
16461;BME280;8341;42.048;24.650;2022-12-29T12:18:00;98115.41;;;10.48;70.59
16461;BME280;8341;42.048;24.650;2022-12-29T12:20:38;98105.34;;;9.96;72.71
16461;BME280;8341;42.048;24.650;2022-12-29T12:23:14;98108.38;;;9.98;73.33
16461;BME280;8341;42.048;24.650;2022-12-29T12:25:50;98113.06;;;10.19;73.04
16461;BME280;8341;42.048;24.650;2022-12-29T12:28:21;98115.16;;;10.15;72.70
16461;BME280;8341;42.048;24.650;2022-12-29T12:30:55;98102.75;;;9.92;73.59
16461;BME280;8341;42.048;24.650;2022-12-29T12:33:28;98106.38;;;10.20;73.20
16461;BME280;8341;42.048;24.650;2022-12-29T12:36:09;98101.97;;;10.14;72.84
16461;BME280;8341;42.048;24.650;2022-12-29T12:38:48;98104.63;;;10.04;73.32
16461;BME280;8341;42.048;24.650;2022-12-29T12:41:24;98091.56;;;9.99;73.35
16461;BME280;8341;42.048;24.650;2022-12-29T12:44:00;98104.50;;;10.08;73.81
16461;BME280;8341;42.048;24.650;2022-12-29T12:46:46;98099.44;;;10.19;73.11
16461;BME280;8341;42.048;24.650;2022-12-29T12:52:48;98100.56;;;9.78;73.52
16461;BME280;8341;42.048;24.650;2022-12-29T12:55:41;98103.56;;;10.02;73.99
16461;BME280;8341;42.048;24.650;2022-12-29T12:58:20;98102.94;;;9.98;73.99
16461;BME280;8341;42.048;24.650;2022-12-29T13:01:04;98105.66;;;9.98;74.10
16461;BME280;8341;42.048;24.650;2022-12-29T13:03:45;98102.00;;;9.92;73.62
16461;BME280;8341;42.048;24.650;2022-12-29T13:06:20;98102.22;;;10.06;73.20
16461;BME280;8341;42.048;24.650;2022-12-29T13:09:12;98106.66;;;10.13;73.26
16461;BME280;8341;42.048;24.650;2022-12-29T13:11:55;98106.09;;;10.27;72.45
16461;BME280;8341;42.048;24.650;2022-12-29T13:14:34;98107.53;;;10.10;73.03
16461;BME280;8341;42.048;24.650;2022-12-29T13:17:15;98102.28;;;10.16;71.54
16461;BME280;8341;42.048;24.650;2022-12-29T13:19:49;98103.56;;;10.33;71.99
16461;BME280;8341;42.048;24.650;2022-12-29T13:22:22;98108.47;;;10.47;72.15
16461;BME280;8341;42.048;24.650;2022-12-29T13:24:59;98108.91;;;10.45;70.79
16461;BME280;8341;42.048;24.650;2022-12-29T13:27:37;98097.09;;;10.39;71.15
16461;BME280;8341;42.048;24.650;2022-12-29T13:30:10;98100.25;;;10.07;72.17
16461;BME280;8341;42.048;24.650;2022-12-29T13:32:49;98096.19;;;10.12;73.12
16461;BME280;8341;42.048;24.650;2022-12-29T13:35:33;98099.44;;;10.19;72.55
16461;BME280;8341;42.048;24.650;2022-12-29T13:38:10;98095.44;;;10.11;72.58